createdAt,value
2018-02-25T00:00:29.702Z,1022.68
2018-02-25T00:01:29.687Z,1022.76
2018-02-25T00:02:29.703Z,1022.73
2018-02-25T00:03:29.664Z,1022.73
2018-02-25T00:04:29.646Z,1022.75
2018-02-25T00:05:29.633Z,1022.82
2018-02-25T00:06:29.619Z,1022.82
2018-02-25T00:07:29.605Z,1022.80
2018-02-25T00:08:29.590Z,1022.83
2018-02-25T00:09:29.578Z,1022.83
2018-02-25T00:10:29.567Z,1022.86
2018-02-25T00:11:29.544Z,1022.94
2018-02-25T00:12:29.531Z,1022.90
2018-02-25T00:13:29.516Z,1022.95
2018-02-25T00:14:29.503Z,1022.91
2018-02-25T00:15:29.490Z,1022.91
2018-02-25T00:16:29.473Z,1022.89
2018-02-25T00:17:29.460Z,1022.82
2018-02-25T00:18:29.446Z,1022.85
2018-02-25T00:19:29.434Z,1022.78
2018-02-25T00:20:29.419Z,1022.85
2018-02-25T00:21:29.406Z,1022.81
2018-02-25T00:22:29.391Z,1022.80
2018-02-25T00:23:29.377Z,1022.87
2018-02-25T00:24:29.362Z,1022.81
2018-02-25T00:25:29.350Z,1022.84
2018-02-25T00:26:29.335Z,1022.87
2018-02-25T00:27:29.317Z,1022.85
2018-02-25T00:28:29.303Z,1022.90
2018-02-25T00:29:29.290Z,1022.96
2018-02-25T00:30:29.275Z,1022.95
2018-02-25T00:31:29.261Z,1022.92
2018-02-25T00:32:29.246Z,1022.98
2018-02-25T00:33:29.233Z,1022.90
2018-02-25T00:34:29.218Z,1022.88
2018-02-25T00:35:29.206Z,1022.93
2018-02-25T00:36:29.193Z,1022.93
2018-02-25T00:37:29.178Z,1022.92
2018-02-25T00:38:29.165Z,1022.97
2018-02-25T00:39:29.150Z,1022.97
2018-02-25T00:40:29.135Z,1022.91
2018-02-25T00:41:29.122Z,1022.94
2018-02-25T00:42:29.108Z,1022.95
2018-02-25T00:43:29.090Z,1022.98
2018-02-25T00:44:29.076Z,1022.98
2018-02-25T00:45:29.061Z,1022.99
2018-02-25T00:46:29.048Z,1022.99
2018-02-25T00:47:29.038Z,1023.01
2018-02-25T00:48:29.021Z,1023.01
2018-02-25T00:49:29.012Z,1023.03
2018-02-25T00:50:28.994Z,1023.05
2018-02-25T00:51:28.976Z,1023.10
2018-02-25T00:52:28.960Z,1023.08
2018-02-25T00:53:28.947Z,1023.13
2018-02-25T00:54:28.935Z,1023.07
2018-02-25T00:55:28.918Z,1023.16
2018-02-25T00:56:28.904Z,1023.14
2018-02-25T00:57:28.890Z,1023.14
2018-02-25T00:58:28.876Z,1023.15
2018-02-25T00:59:28.863Z,1023.20
2018-02-25T01:00:28.851Z,1023.19
2018-02-25T01:01:28.836Z,1023.19
2018-02-25T01:02:28.823Z,1023.18
2018-02-25T01:03:28.806Z,1023.14
2018-02-25T01:04:28.793Z,1023.11
2018-02-25T01:05:28.779Z,1023.10
2018-02-25T01:06:28.766Z,1023.16
2018-02-25T01:07:28.747Z,1023.15
2018-02-25T01:08:28.732Z,1023.17
2018-02-25T01:09:28.720Z,1023.17
2018-02-25T01:10:28.706Z,1023.12
2018-02-25T01:11:28.690Z,1023.18
2018-02-25T01:12:28.675Z,1023.21
2018-02-25T01:13:28.662Z,1023.15
2018-02-25T01:14:28.648Z,1023.17
2018-02-25T01:15:28.636Z,1023.17
2018-02-25T01:16:28.621Z,1023.23
2018-02-25T01:17:28.607Z,1023.21
2018-02-25T01:18:28.644Z,1023.17
2018-02-25T01:19:28.578Z,1023.17
2018-02-25T01:20:28.564Z,1023.17
2018-02-25T01:21:28.549Z,1023.22
2018-02-25T01:22:28.536Z,1023.23
2018-02-25T01:23:28.518Z,1023.20
2018-02-25T01:24:28.502Z,1023.19
2018-02-25T01:25:28.488Z,1023.16
2018-02-25T01:26:28.474Z,1023.17
2018-02-25T01:27:28.462Z,1023.14
2018-02-25T01:28:28.445Z,1023.18
2018-02-25T01:29:28.433Z,1023.17
2018-02-25T01:30:28.416Z,1023.17
2018-02-25T01:31:28.407Z,1023.14
2018-02-25T01:32:28.420Z,1023.13
2018-02-25T01:33:28.376Z,1023.14
2018-02-25T01:34:28.362Z,1023.14
2018-02-25T01:35:28.346Z,1023.14
2018-02-25T01:36:28.333Z,1023.20
2018-02-25T01:37:28.319Z,1023.09
2018-02-25T01:38:28.303Z,1023.14
2018-02-25T01:39:28.287Z,1023.12
2018-02-25T01:40:28.271Z,1023.16
2018-02-25T01:41:28.257Z,1023.16
2018-02-25T01:42:28.244Z,1023.18
2018-02-25T01:43:28.228Z,1023.19
2018-02-25T01:44:28.214Z,1023.20
2018-02-25T01:45:28.201Z,1023.20
2018-02-25T01:46:28.186Z,1023.16
2018-02-25T01:47:28.172Z,1023.18
2018-02-25T01:48:28.159Z,1023.14
2018-02-25T01:49:28.144Z,1023.12
2018-02-25T01:50:28.134Z,1023.08
2018-02-25T01:51:28.112Z,1023.01
2018-02-25T01:52:28.097Z,1023.05
2018-02-25T01:53:28.087Z,1023.05
2018-02-25T01:54:28.069Z,1023.03
2018-02-25T01:55:28.056Z,1023.05
2018-02-25T01:56:28.043Z,1023.03
2018-02-25T01:57:28.028Z,1023.08
2018-02-25T01:58:28.014Z,1023.03
2018-02-25T01:59:28.000Z,1023.04
2018-02-25T02:00:27.985Z,1023.06
2018-02-25T02:01:27.971Z,1023.04
2018-02-25T02:02:27.956Z,1022.97
2018-02-25T02:03:27.938Z,1023.00
2018-02-25T02:04:27.926Z,1023.03
2018-02-25T02:05:27.909Z,1022.97
2018-02-25T02:06:27.895Z,1023.03
2018-02-25T02:07:27.878Z,1023.06
2018-02-25T02:08:27.864Z,1023.02
2018-02-25T02:09:27.852Z,1023.04
2018-02-25T02:10:27.835Z,1023.07
2018-02-25T02:11:27.823Z,1023.00
2018-02-25T02:12:27.808Z,1022.98
2018-02-25T02:13:27.794Z,1023.05
2018-02-25T02:14:27.781Z,1023.07
2018-02-25T02:15:27.764Z,1023.14
2018-02-25T02:16:27.750Z,1023.03
2018-02-25T02:17:27.765Z,1023.07
2018-02-25T02:18:27.722Z,1023.02
2018-02-25T02:19:27.702Z,1023.01
2018-02-25T02:20:27.688Z,1023.05
2018-02-25T02:21:27.674Z,1023.02
2018-02-25T02:22:27.660Z,1023.04
2018-02-25T02:23:27.644Z,1023.04
2018-02-25T02:24:27.629Z,1023.10
2018-02-25T02:25:27.615Z,1023.06
2018-02-25T02:26:27.602Z,1023.07
2018-02-25T02:27:27.587Z,1023.11
2018-02-25T02:28:27.574Z,1023.09
2018-02-25T02:29:27.561Z,1023.10
2018-02-25T02:30:27.555Z,1023.12
2018-02-25T02:31:27.528Z,1023.11
2018-02-25T02:32:27.515Z,1023.10
2018-02-25T02:33:27.501Z,1023.08
2018-02-25T02:34:27.484Z,1023.08
2018-02-25T02:35:27.468Z,1023.10
2018-02-25T02:36:27.452Z,1023.09
2018-02-25T02:37:27.438Z,1023.11
2018-02-25T02:38:27.424Z,1023.13
2018-02-25T02:39:27.409Z,1023.12
2018-02-25T02:40:27.393Z,1023.08
2018-02-25T02:41:27.379Z,1023.08
2018-02-25T02:42:27.366Z,1023.13
2018-02-25T02:43:27.357Z,1023.16
2018-02-25T02:44:27.335Z,1023.16
2018-02-25T02:45:27.322Z,1023.16
2018-02-25T02:46:27.308Z,1023.16
2018-02-25T02:47:27.292Z,1023.21
2018-02-25T02:48:27.277Z,1023.19
2018-02-25T02:49:27.263Z,1023.17
2018-02-25T02:50:27.248Z,1023.23
2018-02-25T02:51:27.230Z,1023.22
2018-02-25T02:52:27.217Z,1023.18
2018-02-25T02:53:27.201Z,1023.23
2018-02-25T02:54:27.189Z,1023.21
2018-02-25T02:55:27.177Z,1023.16
2018-02-25T02:56:27.159Z,1023.16
2018-02-25T02:57:27.144Z,1023.13
2018-02-25T02:58:27.129Z,1023.17
2018-02-25T02:59:27.110Z,1023.22
2018-02-25T03:00:27.096Z,1023.20
2018-02-25T03:01:27.081Z,1023.15
2018-02-25T03:02:27.070Z,1023.17
2018-02-25T03:03:27.052Z,1023.19
2018-02-25T03:04:27.038Z,1023.21
2018-02-25T03:05:27.023Z,1023.20
2018-02-25T03:06:27.007Z,1023.30
2018-02-25T03:07:26.994Z,1023.30
2018-02-25T03:08:26.980Z,1023.28
2018-02-25T03:09:26.965Z,1023.31
2018-02-25T03:10:26.950Z,1023.34
2018-02-25T03:11:26.934Z,1023.34
2018-02-25T03:12:26.920Z,1023.30
2018-02-25T03:13:26.905Z,1023.39
2018-02-25T03:14:26.891Z,1023.33
2018-02-25T03:15:26.872Z,1023.40
2018-02-25T03:16:26.856Z,1023.36
2018-02-25T03:17:26.841Z,1023.35
2018-02-25T03:18:26.827Z,1023.36
2018-02-25T03:19:26.812Z,1023.36
2018-02-25T03:20:26.796Z,1023.35
2018-02-25T03:21:26.781Z,1023.34
2018-02-25T03:22:26.769Z,1023.33
2018-02-25T03:23:26.753Z,1023.33
2018-02-25T03:24:26.740Z,1023.32
2018-02-25T03:25:26.724Z,1023.40
2018-02-25T03:26:26.709Z,1023.36
2018-02-25T03:27:26.693Z,1023.40
2018-02-25T03:28:26.680Z,1023.40
2018-02-25T03:29:26.665Z,1023.45
2018-02-25T03:30:26.650Z,1023.49
2018-02-25T03:31:26.632Z,1023.51
2018-02-25T03:32:26.615Z,1023.50
2018-02-25T03:33:26.600Z,1023.49
2018-02-25T03:34:26.591Z,1023.51
2018-02-25T03:35:26.571Z,1023.46
2018-02-25T03:36:26.555Z,1023.50
2018-02-25T03:37:26.541Z,1023.52
2018-02-25T03:38:26.527Z,1023.48
2018-02-25T03:39:26.511Z,1023.47
2018-02-25T03:40:26.498Z,1023.49
2018-02-25T03:41:26.483Z,1023.49
2018-02-25T03:42:26.468Z,1023.49
2018-02-25T03:43:26.450Z,1023.53
2018-02-25T03:44:26.436Z,1023.49
2018-02-25T03:45:26.421Z,1023.52
2018-02-25T03:46:26.408Z,1023.49
2018-02-25T03:47:26.394Z,1023.49
2018-02-25T03:48:26.374Z,1023.51
2018-02-25T03:49:26.358Z,1023.51
2018-02-25T03:50:26.343Z,1023.59
2018-02-25T03:51:26.330Z,1023.59
2018-02-25T03:52:26.312Z,1023.58
2018-02-25T03:53:26.297Z,1023.62
2018-02-25T03:54:26.286Z,1023.58
2018-02-25T03:55:26.269Z,1023.64
2018-02-25T03:56:26.255Z,1023.63
2018-02-25T03:57:26.241Z,1023.69
2018-02-25T03:58:26.225Z,1023.71
2018-02-25T03:59:26.205Z,1023.72
2018-02-25T04:00:26.192Z,1023.77
2018-02-25T04:01:26.175Z,1023.76
2018-02-25T04:02:26.161Z,1023.82
2018-02-25T04:03:26.148Z,1023.77
2018-02-25T04:04:26.136Z,1023.78
2018-02-25T04:05:26.119Z,1023.76
2018-02-25T04:06:26.103Z,1023.76
2018-02-25T04:07:26.088Z,1023.78
2018-02-25T04:08:26.071Z,1023.83
2018-02-25T04:09:26.064Z,1023.78
2018-02-25T04:10:26.043Z,1023.83
2018-02-25T04:11:26.024Z,1023.81
2018-02-25T04:12:26.010Z,1023.80
2018-02-25T04:13:25.993Z,1023.81
2018-02-25T04:14:25.978Z,1023.85
2018-02-25T04:15:25.963Z,1023.82
2018-02-25T04:16:25.949Z,1023.92
2018-02-25T04:17:25.934Z,1023.91
2018-02-25T04:18:25.917Z,1023.86
2018-02-25T04:19:25.905Z,1023.87
2018-02-25T04:20:25.890Z,1023.83
2018-02-25T04:21:25.874Z,1023.94
2018-02-25T04:22:25.861Z,1023.87
2018-02-25T04:23:25.845Z,1023.85
2018-02-25T04:24:25.828Z,1023.92
2018-02-25T04:25:25.814Z,1023.92
2018-02-25T04:26:25.799Z,1023.91
2018-02-25T04:27:25.779Z,1023.97
2018-02-25T04:28:25.764Z,1024.06
2018-02-25T04:29:25.751Z,1024.02
2018-02-25T04:30:25.734Z,1024.01
2018-02-25T04:31:25.718Z,1023.98
2018-02-25T04:32:25.749Z,1023.90
2018-02-25T04:33:25.691Z,1023.97
2018-02-25T04:34:25.672Z,1023.90
2018-02-25T04:35:25.661Z,1023.93
2018-02-25T04:36:25.645Z,1023.99
2018-02-25T04:37:25.629Z,1024.07
2018-02-25T04:38:25.615Z,1023.98
2018-02-25T04:39:25.599Z,1024.01
2018-02-25T04:40:25.583Z,1024.01
2018-02-25T04:41:25.568Z,1023.99
2018-02-25T04:42:25.558Z,1024.10
2018-02-25T04:43:25.534Z,1024.06
2018-02-25T04:44:25.519Z,1024.06
2018-02-25T04:45:25.504Z,1024.09
2018-02-25T04:46:25.489Z,1024.09
2018-02-25T04:47:25.473Z,1024.15
2018-02-25T04:48:25.459Z,1024.22
2018-02-25T04:49:25.446Z,1024.18
2018-02-25T04:50:25.427Z,1024.20
2018-02-25T04:51:25.414Z,1024.19
2018-02-25T04:52:25.401Z,1024.17
2018-02-25T04:53:25.384Z,1024.19
2018-02-25T04:54:25.369Z,1024.19
2018-02-25T04:55:25.352Z,1024.16
2018-02-25T04:56:25.336Z,1024.15
2018-02-25T04:57:25.324Z,1024.25
2018-02-25T04:58:25.306Z,1024.21
2018-02-25T04:59:25.288Z,1024.23
2018-02-25T05:00:25.272Z,1024.22
2018-02-25T05:01:25.257Z,1024.23
2018-02-25T05:02:25.241Z,1024.24
2018-02-25T05:03:25.224Z,1024.18
2018-02-25T05:04:25.221Z,1024.23
2018-02-25T05:05:25.194Z,1024.20
2018-02-25T05:06:25.179Z,1024.21
2018-02-25T05:07:25.166Z,1024.26
2018-02-25T05:08:25.150Z,1024.25
2018-02-25T05:09:25.142Z,1024.28
2018-02-25T05:10:25.120Z,1024.26
2018-02-25T05:11:25.104Z,1024.29
2018-02-25T05:12:25.088Z,1024.32
2018-02-25T05:13:25.077Z,1024.32
2018-02-25T05:14:25.069Z,1024.37
2018-02-25T05:15:25.038Z,1024.44
2018-02-25T05:16:25.022Z,1024.33
2018-02-25T05:17:25.006Z,1024.35
2018-02-25T05:18:24.990Z,1024.36
2018-02-25T05:19:24.979Z,1024.36
2018-02-25T05:20:24.959Z,1024.32
2018-02-25T05:21:24.944Z,1024.38
2018-02-25T05:22:24.929Z,1024.34
2018-02-25T05:23:24.914Z,1024.33
2018-02-25T05:24:24.900Z,1024.35
2018-02-25T05:25:24.883Z,1024.33
2018-02-25T05:26:24.868Z,1024.33
2018-02-25T05:27:24.909Z,1024.31
2018-02-25T05:28:24.835Z,1024.33
2018-02-25T05:29:24.819Z,1024.27
2018-02-25T05:30:24.805Z,1024.35
2018-02-25T05:31:24.784Z,1024.50
2018-02-25T05:32:24.770Z,1024.35
2018-02-25T05:33:24.757Z,1024.41
2018-02-25T05:34:24.740Z,1024.36
2018-02-25T05:35:24.725Z,1024.38
2018-02-25T05:36:24.707Z,1024.37
2018-02-25T05:37:24.692Z,1024.37
2018-02-25T05:38:24.678Z,1024.31
2018-02-25T05:39:24.661Z,1024.32
2018-02-25T05:40:24.646Z,1024.38
2018-02-25T05:41:24.631Z,1024.31
2018-02-25T05:42:24.615Z,1024.24
2018-02-25T05:43:24.598Z,1024.29
2018-02-25T05:44:24.581Z,1024.29
2018-02-25T05:45:24.568Z,1024.25
2018-02-25T05:46:24.550Z,1024.19
2018-02-25T05:47:24.533Z,1024.21
2018-02-25T05:48:24.516Z,1024.16
2018-02-25T05:49:24.502Z,1024.21
2018-02-25T05:50:24.484Z,1024.38
2018-02-25T05:51:24.468Z,1024.20
2018-02-25T05:52:24.453Z,1024.23
2018-02-25T05:53:24.436Z,1024.25
2018-02-25T05:54:24.421Z,1024.29
2018-02-25T05:55:24.406Z,1024.22
2018-02-25T05:56:24.391Z,1024.29
2018-02-25T05:57:24.376Z,1024.34
2018-02-25T05:58:24.360Z,1024.25
2018-02-25T05:59:24.343Z,1024.26
2018-02-25T06:00:24.328Z,1024.27
2018-02-25T06:01:24.313Z,1024.30
2018-02-25T06:02:24.296Z,1024.27
2018-02-25T06:03:24.277Z,1024.30
2018-02-25T06:04:24.261Z,1024.22
2018-02-25T06:05:24.245Z,1024.28
2018-02-25T06:06:24.230Z,1024.31
2018-02-25T06:07:24.215Z,1024.27
2018-02-25T06:08:24.201Z,1024.31
2018-02-25T06:09:24.184Z,1024.32
2018-02-25T06:10:24.169Z,1024.34
2018-02-25T06:11:24.149Z,1024.35
2018-02-25T06:12:24.133Z,1024.32
2018-02-25T06:13:24.118Z,1024.31
2018-02-25T06:14:24.102Z,1024.34
2018-02-25T06:15:24.086Z,1024.30
2018-02-25T06:16:24.069Z,1024.32
2018-02-25T06:17:24.052Z,1024.36
2018-02-25T06:18:24.038Z,1024.38
2018-02-25T06:19:24.025Z,1024.35
2018-02-25T06:20:24.009Z,1024.37
2018-02-25T06:21:23.996Z,1024.42
2018-02-25T06:22:23.977Z,1024.39
2018-02-25T06:23:23.960Z,1024.43
2018-02-25T06:24:23.945Z,1024.44
2018-02-25T06:25:23.930Z,1024.39
2018-02-25T06:26:23.915Z,1024.46
2018-02-25T06:27:23.895Z,1024.49
2018-02-25T06:28:23.879Z,1024.44
2018-02-25T06:29:23.863Z,1024.46
2018-02-25T06:30:23.847Z,1024.49
2018-02-25T06:31:23.833Z,1024.52
2018-02-25T06:32:23.815Z,1024.43
2018-02-25T06:33:23.799Z,1024.47
2018-02-25T06:34:23.786Z,1024.49
2018-02-25T06:35:23.770Z,1024.53
2018-02-25T06:36:23.755Z,1024.51
2018-02-25T06:37:23.738Z,1024.55
2018-02-25T06:38:23.723Z,1024.55
2018-02-25T06:39:23.710Z,1024.57
2018-02-25T06:40:23.692Z,1024.58
2018-02-25T06:41:23.676Z,1024.51
2018-02-25T06:42:23.666Z,1024.56
2018-02-25T06:43:23.641Z,1024.56
2018-02-25T06:44:23.625Z,1024.59
2018-02-25T06:45:23.610Z,1024.59
2018-02-25T06:46:23.594Z,1024.54
2018-02-25T06:47:23.578Z,1024.65
2018-02-25T06:48:23.562Z,1024.61
2018-02-25T06:49:23.547Z,1024.70
2018-02-25T06:50:23.531Z,1024.76
2018-02-25T06:51:23.517Z,1024.81
2018-02-25T06:52:23.503Z,1024.91
2018-02-25T06:53:23.492Z,1025.00
2018-02-25T06:54:23.472Z,1025.10
2018-02-25T06:55:23.456Z,1025.15
2018-02-25T06:56:23.441Z,1025.19
2018-02-25T06:57:23.426Z,1025.15
2018-02-25T06:58:23.410Z,1025.30
2018-02-25T06:59:23.392Z,1025.29
2018-02-25T07:00:23.378Z,1025.35
2018-02-25T07:01:23.364Z,1025.40
2018-02-25T07:02:23.355Z,1025.41
2018-02-25T07:03:23.334Z,1025.47
2018-02-25T07:04:23.322Z,1025.48
2018-02-25T07:05:23.309Z,1025.55
2018-02-25T07:06:23.296Z,1025.50
2018-02-25T07:07:23.285Z,1025.62
2018-02-25T07:08:23.272Z,1025.58
2018-02-25T07:09:23.260Z,1025.47
2018-02-25T07:10:23.250Z,1025.34
2018-02-25T07:11:23.232Z,1025.20
2018-02-25T07:12:23.220Z,1025.20
2018-02-25T07:13:23.208Z,1025.21
2018-02-25T07:14:23.196Z,1025.31
2018-02-25T07:15:23.229Z,1025.52
2018-02-25T07:16:23.176Z,1025.68
2018-02-25T07:17:23.163Z,1025.72
2018-02-25T07:18:23.152Z,1025.73
2018-02-25T07:19:23.139Z,1025.85
2018-02-25T07:20:23.125Z,1025.88
2018-02-25T07:21:23.116Z,1025.84
2018-02-25T07:22:23.103Z,1025.92
2018-02-25T07:23:23.094Z,1025.90
2018-02-25T07:24:23.077Z,1025.91
2018-02-25T07:25:21.544Z,1025.91
2018-02-25T07:26:21.532Z,1025.99
2018-02-25T07:27:21.524Z,1026.02
2018-02-25T07:28:21.514Z,1025.98
2018-02-25T07:29:21.504Z,1026.08
2018-02-25T07:30:21.494Z,1026.08
2018-02-25T07:31:21.484Z,1026.11
2018-02-25T07:32:21.475Z,1026.09
2018-02-25T07:33:21.466Z,1026.18
2018-02-25T07:34:21.457Z,1026.25
2018-02-25T07:35:21.450Z,1026.21
2018-02-25T07:36:21.437Z,1026.23
2018-02-25T07:37:21.428Z,1026.23
2018-02-25T07:38:21.418Z,1026.21
2018-02-25T07:39:21.409Z,1026.22
2018-02-25T07:40:21.403Z,1026.22
2018-02-25T07:41:21.394Z,1026.24
2018-02-25T07:42:21.496Z,1026.24
2018-02-25T07:43:21.377Z,1026.23
2018-02-25T07:44:21.375Z,1026.29
2018-02-25T07:45:21.372Z,1026.31
2018-02-25T07:46:21.359Z,1026.34
2018-02-25T07:47:21.352Z,1026.35
2018-02-25T07:48:21.398Z,1026.37
2018-02-25T07:49:21.338Z,1026.39
2018-02-25T07:50:21.333Z,1026.41
2018-02-25T07:51:21.326Z,1026.40
2018-02-25T07:52:21.316Z,1026.33
2018-02-25T07:53:21.310Z,1026.36
2018-02-25T07:54:21.305Z,1026.40
2018-02-25T07:55:21.297Z,1026.42
2018-02-25T07:56:21.294Z,1026.43
2018-02-25T07:57:21.289Z,1026.40
2018-02-25T07:58:21.282Z,1026.46
2018-02-25T07:59:21.277Z,1026.43
2018-02-25T08:00:21.275Z,1026.57
2018-02-25T08:01:21.270Z,1026.49
2018-02-25T08:02:21.264Z,1026.47
2018-02-25T08:03:21.315Z,1026.49
2018-02-25T08:04:21.255Z,1026.51
2018-02-25T08:05:21.249Z,1026.47
2018-02-25T08:06:21.244Z,1026.49
2018-02-25T08:07:21.241Z,1026.51
2018-02-25T08:08:21.248Z,1026.57
2018-02-25T08:09:21.229Z,1026.59
2018-02-25T08:10:21.229Z,1026.55
2018-02-25T08:11:21.219Z,1026.59
2018-02-25T08:12:21.216Z,1026.63
2018-02-25T08:13:21.212Z,1026.71
2018-02-25T08:14:21.208Z,1026.83
2018-02-25T08:15:21.205Z,1026.78
2018-02-25T08:16:21.203Z,1026.76
2018-02-25T08:17:21.201Z,1026.71
2018-02-25T08:18:21.196Z,1026.74
2018-02-25T08:19:21.194Z,1026.00
2018-02-25T08:20:21.192Z,1025.97
2018-02-25T08:21:21.189Z,1025.96
2018-02-25T08:22:21.185Z,1026.02
2018-02-25T08:23:21.181Z,1026.03
2018-02-25T08:24:21.238Z,1026.06
2018-02-25T08:25:21.176Z,1025.99
2018-02-25T08:26:21.170Z,1026.02
2018-02-25T08:27:21.169Z,1026.02
2018-02-25T08:28:21.169Z,1026.05
2018-02-25T08:29:21.164Z,1026.02
2018-02-25T08:30:21.162Z,1025.99
2018-02-25T08:31:21.161Z,1026.00
2018-02-25T08:32:21.153Z,1025.99
2018-02-25T08:33:21.151Z,1026.03
2018-02-25T08:34:21.149Z,1026.00
2018-02-25T08:35:21.158Z,1026.04
2018-02-25T08:36:21.142Z,1025.97
2018-02-25T08:37:21.140Z,1025.99
2018-02-25T08:38:21.137Z,1026.05
2018-02-25T08:39:21.134Z,1025.99
2018-02-25T08:40:21.135Z,1026.09
2018-02-25T08:41:21.133Z,1026.05
2018-02-25T08:42:21.128Z,1026.00
2018-02-25T08:43:21.126Z,1026.06
2018-02-25T08:44:21.122Z,1026.00
2018-02-25T08:45:21.122Z,1026.05
2018-02-25T08:46:21.118Z,1026.07
2018-02-25T08:47:21.115Z,1026.12
2018-02-25T08:48:21.109Z,1026.12
2018-02-25T08:49:21.107Z,1026.03
2018-02-25T08:50:21.103Z,1026.00
2018-02-25T08:51:21.100Z,1026.04
2018-02-25T08:52:21.098Z,1026.10
2018-02-25T08:53:21.095Z,1026.11
2018-02-25T08:54:21.090Z,1026.17
2018-02-25T08:55:21.088Z,1026.13
2018-02-25T08:56:21.088Z,1026.23
2018-02-25T08:57:21.086Z,1026.13
2018-02-25T08:58:21.082Z,1026.10
2018-02-25T08:59:21.079Z,1026.16
2018-02-25T09:00:21.077Z,1026.11
2018-02-25T09:01:21.075Z,1026.10
2018-02-25T09:02:21.071Z,1026.13
2018-02-25T09:03:21.070Z,1026.14
2018-02-25T09:04:21.065Z,1026.12
2018-02-25T09:05:21.062Z,1026.15
2018-02-25T09:06:21.060Z,1026.14
2018-02-25T09:07:21.057Z,1026.09
2018-02-25T09:08:21.055Z,1026.21
2018-02-25T09:09:21.056Z,1026.20
2018-02-25T09:10:21.051Z,1026.13
2018-02-25T09:11:21.050Z,1026.16
2018-02-25T09:12:21.051Z,1026.19
2018-02-25T09:13:21.048Z,1026.15
2018-02-25T09:14:21.046Z,1026.12
2018-02-25T09:15:21.046Z,1026.15
2018-02-25T09:16:21.040Z,1026.14
2018-02-25T09:17:21.040Z,1026.14
2018-02-25T09:18:21.035Z,1026.09
2018-02-25T09:19:21.033Z,1026.12
2018-02-25T09:20:21.036Z,1026.12
2018-02-25T09:21:21.028Z,1026.21
2018-02-25T09:22:21.025Z,1026.26
2018-02-25T09:23:21.023Z,1026.21
2018-02-25T09:24:21.022Z,1026.19
2018-02-25T09:25:21.024Z,1026.20
2018-02-25T09:26:21.019Z,1026.27
2018-02-25T09:27:21.019Z,1026.30
2018-02-25T09:28:21.021Z,1026.15
2018-02-25T09:29:21.020Z,1026.18
2018-02-25T09:30:21.019Z,1026.20
2018-02-25T09:31:21.017Z,1026.27
2018-02-25T09:32:21.014Z,1026.21
2018-02-25T09:33:21.015Z,1026.20
2018-02-25T09:34:21.016Z,1026.30
2018-02-25T09:35:21.012Z,1026.27
2018-02-25T09:36:21.015Z,1026.25
2018-02-25T09:37:21.014Z,1026.43
2018-02-25T09:38:21.012Z,1026.27
2018-02-25T09:39:21.010Z,1026.35
2018-02-25T09:40:21.030Z,1026.32
2018-02-25T09:41:21.027Z,1026.37
2018-02-25T09:42:21.008Z,1026.31
2018-02-25T09:43:21.008Z,1026.28
2018-02-25T09:44:21.003Z,1026.34
2018-02-25T09:45:21.004Z,1026.36
2018-02-25T09:46:21.004Z,1026.30
2018-02-25T09:47:21.002Z,1026.46
2018-02-25T09:48:21.001Z,1026.46
2018-02-25T09:49:21.003Z,1026.43
2018-02-25T09:50:21.000Z,1026.39
2018-02-25T09:51:20.999Z,1026.28
2018-02-25T09:52:21.002Z,1026.32
2018-02-25T09:53:21.003Z,1026.37
2018-02-25T09:54:21.039Z,1026.43
2018-02-25T09:55:21.004Z,1026.40
2018-02-25T09:56:21.005Z,1026.43
2018-02-25T09:57:21.007Z,1026.46
2018-02-25T09:58:21.007Z,1026.44
2018-02-25T09:59:21.008Z,1026.52
2018-02-25T10:00:21.008Z,1026.49
2018-02-25T10:01:21.010Z,1026.57
2018-02-25T10:02:21.011Z,1026.59
2018-02-25T10:03:21.013Z,1026.38
2018-02-25T10:04:21.014Z,1026.17
2018-02-25T10:05:21.016Z,1026.12
2018-02-25T10:06:21.018Z,1025.91
2018-02-25T10:07:21.019Z,1025.88
2018-02-25T10:08:21.023Z,1025.93
2018-02-25T10:09:21.023Z,1025.96
2018-02-25T10:10:21.024Z,1025.94
2018-02-25T10:11:21.026Z,1025.98
2018-02-25T10:12:21.028Z,1025.94
2018-02-25T10:13:21.028Z,1025.93
2018-02-25T10:14:21.093Z,1025.89
2018-02-25T10:15:21.030Z,1025.98
2018-02-25T10:16:21.027Z,1025.95
2018-02-25T10:17:21.030Z,1025.88
2018-02-25T10:18:21.031Z,1026.12
2018-02-25T10:19:21.030Z,1025.83
2018-02-25T10:20:21.032Z,1025.89
2018-02-25T10:21:21.033Z,1025.97
2018-02-25T10:22:21.032Z,1025.91
2018-02-25T10:23:21.034Z,1026.01
2018-02-25T10:24:21.037Z,1025.99
2018-02-25T10:25:21.037Z,1025.82
2018-02-25T10:26:21.037Z,1025.91
2018-02-25T10:27:21.036Z,1025.94
2018-02-25T10:28:21.037Z,1025.93
2018-02-25T10:29:21.039Z,1025.83
2018-02-25T10:30:21.037Z,1025.89
2018-02-25T10:31:21.038Z,1025.77
2018-02-25T10:32:21.036Z,1025.78
2018-02-25T10:33:21.035Z,1025.84
2018-02-25T10:34:21.036Z,1025.78
2018-02-25T10:35:21.033Z,1025.80
2018-02-25T10:36:21.038Z,1025.93
2018-02-25T10:37:21.037Z,1025.79
2018-02-25T10:38:21.038Z,1025.78
2018-02-25T10:39:21.035Z,1025.76
2018-02-25T10:40:21.032Z,1025.74
2018-02-25T10:41:21.032Z,1025.77
2018-02-25T10:42:21.034Z,1025.72
2018-02-25T10:43:21.033Z,1025.80
2018-02-25T10:44:21.032Z,1025.77
2018-02-25T10:45:21.033Z,1025.89
2018-02-25T10:46:21.033Z,1025.77
2018-02-25T10:47:21.040Z,1025.84
2018-02-25T10:48:21.037Z,1025.91
2018-02-25T10:49:21.039Z,1025.83
2018-02-25T10:50:21.038Z,1025.79
2018-02-25T10:51:21.040Z,1025.80
2018-02-25T10:52:21.041Z,1025.77
2018-02-25T10:53:21.042Z,1025.76
2018-02-25T10:54:21.044Z,1025.61
2018-02-25T10:55:21.045Z,1025.67
2018-02-25T10:56:21.043Z,1025.63
2018-02-25T10:57:21.043Z,1025.65
2018-02-25T10:58:21.044Z,1025.65
2018-02-25T10:59:21.045Z,1025.61
2018-02-25T11:00:21.048Z,1025.68
2018-02-25T11:01:21.049Z,1025.68
2018-02-25T11:02:21.050Z,1025.65
2018-02-25T11:03:21.051Z,1025.63
2018-02-25T11:04:21.056Z,1025.57
2018-02-25T11:05:21.058Z,1025.58
2018-02-25T11:06:21.059Z,1025.57
2018-02-25T11:07:21.065Z,1025.57
2018-02-25T11:08:21.063Z,1025.60
2018-02-25T11:09:21.066Z,1025.59
2018-02-25T11:10:21.071Z,1025.53
2018-02-25T11:11:21.069Z,1025.60
2018-02-25T11:12:21.070Z,1025.48
2018-02-25T11:13:21.071Z,1025.45
2018-02-25T11:14:21.078Z,1025.42
2018-02-25T11:15:21.075Z,1025.41
2018-02-25T11:16:21.077Z,1025.45
2018-02-25T11:17:21.080Z,1025.42
2018-02-25T11:18:21.081Z,1025.49
2018-02-25T11:19:21.085Z,1025.41
2018-02-25T11:20:21.089Z,1025.38
2018-02-25T11:21:21.092Z,1025.28
2018-02-25T11:22:21.093Z,1025.26
2018-02-25T11:23:21.096Z,1025.25
2018-02-25T11:24:21.096Z,1025.22
2018-02-25T11:25:21.099Z,1025.25
2018-02-25T11:26:21.100Z,1025.20
2018-02-25T11:27:21.102Z,1025.25
2018-02-25T11:28:21.099Z,1025.22
2018-02-25T11:29:21.101Z,1025.10
2018-02-25T11:30:21.101Z,1025.12
2018-02-25T11:31:21.178Z,1025.19
2018-02-25T11:32:21.103Z,1025.09
2018-02-25T11:33:21.106Z,1025.13
2018-02-25T11:34:21.103Z,1025.08
2018-02-25T11:35:21.104Z,1024.97
2018-02-25T11:36:21.108Z,1024.99
2018-02-25T11:37:21.107Z,1024.92
2018-02-25T11:38:21.112Z,1024.93
2018-02-25T11:39:21.107Z,1024.94
2018-02-25T11:40:21.106Z,1024.83
2018-02-25T11:41:21.109Z,1024.83
2018-02-25T11:42:21.155Z,1024.77
2018-02-25T11:43:21.103Z,1024.76
2018-02-25T11:44:21.100Z,1024.68
2018-02-25T11:45:21.097Z,1024.70
2018-02-25T11:46:21.096Z,1024.74
2018-02-25T11:47:21.094Z,1024.71
2018-02-25T11:48:21.092Z,1024.61
2018-02-25T11:49:21.089Z,1024.72
2018-02-25T11:50:21.086Z,1024.57
2018-02-25T11:51:21.082Z,1024.61
2018-02-25T11:52:21.081Z,1024.55
2018-02-25T11:53:21.077Z,1024.63
2018-02-25T11:54:21.074Z,1024.64
2018-02-25T11:55:21.090Z,1024.66
2018-02-25T11:56:21.063Z,1024.69
2018-02-25T11:57:21.057Z,1024.63
2018-02-25T11:58:21.049Z,1024.66
2018-02-25T11:59:21.043Z,1024.50
2018-02-25T12:00:21.034Z,1024.55
2018-02-25T12:01:21.030Z,1024.59
2018-02-25T12:02:21.021Z,1024.41
2018-02-25T12:03:21.018Z,1024.37
2018-02-25T12:04:21.005Z,1024.37
2018-02-25T12:05:20.997Z,1024.29